createdAt,value
2022-10-01T00:04:37.606Z,17.15
2022-10-01T00:09:40.288Z,16.70
2022-10-01T00:14:42.916Z,18.20
2022-10-01T00:19:45.698Z,15.88
2022-10-01T00:24:48.235Z,17.52
2022-10-01T00:29:50.905Z,18.67
2022-10-01T00:34:53.809Z,18.88
2022-10-01T00:39:56.379Z,21.13
2022-10-01T00:45:01.701Z,22.27
2022-10-01T00:50:17.628Z,23.05
2022-10-01T00:55:26.789Z,22.35
2022-10-01T01:00:30.412Z,22.73
2022-10-01T01:05:32.979Z,21.67
2022-10-01T01:11:00.101Z,20.20
2022-10-01T01:16:24.218Z,20.30
2022-10-01T01:21:34.168Z,19.30
2022-10-01T01:26:58.919Z,18.90
2022-10-01T01:32:13.994Z,18.63
2022-10-01T01:37:22.726Z,17.40
2022-10-01T01:42:37.874Z,18.52
2022-10-01T01:47:42.295Z,19.20
2022-10-01T01:52:44.988Z,18.35
2022-10-01T01:57:47.734Z,17.65
2022-10-01T02:02:53.949Z,18.75
2022-10-01T02:08:21.043Z,20.30
2022-10-01T02:13:35.212Z,21.15
2022-10-01T02:19:03.777Z,19.52
2022-10-01T02:24:28.197Z,21.05
2022-10-01T02:29:32.164Z,23.10
2022-10-01T02:34:34.695Z,21.08
2022-10-01T02:39:41.065Z,20.58
2022-10-01T02:44:45.802Z,20.98
2022-10-01T02:49:49.935Z,20.42
2022-10-01T02:54:59.131Z,18.95
2022-10-01T03:00:07.058Z,20.35
2022-10-01T03:05:09.657Z,16.40
2022-10-01T03:10:13.329Z,19.67
2022-10-01T03:15:19.364Z,21.30
2022-10-01T03:20:22.587Z,20.90
2022-10-01T03:25:25.630Z,20.80
2022-10-01T03:30:28.661Z,21.75
2022-10-01T03:35:32.296Z,22.75
2022-10-01T03:40:38.995Z,22.70
2022-10-01T03:45:41.618Z,21.85
2022-10-01T03:50:53.426Z,23.58
2022-10-01T03:55:56.012Z,21.60
2022-10-01T04:01:00.668Z,23.52
2022-10-01T04:06:03.574Z,23.55
2022-10-01T04:11:07.237Z,22.73
2022-10-01T04:16:10.375Z,22.58
2022-10-01T04:21:13.033Z,22.35
2022-10-01T04:26:15.559Z,21.65
2022-10-01T04:31:28.056Z,22.27
2022-10-01T04:36:31.241Z,20.63
2022-10-01T04:41:34.067Z,21.80
2022-10-01T04:46:37.211Z,21.50
2022-10-01T04:51:39.932Z,20.48
2022-10-01T04:56:42.530Z,19.92
2022-10-01T05:01:46.222Z,19.15
2022-10-01T05:06:48.914Z,19.42
2022-10-01T05:11:52.220Z,20.17
2022-10-01T05:16:54.896Z,20.40
2022-10-01T05:21:57.632Z,20.02
2022-10-01T05:27:00.214Z,20.48
2022-10-01T05:32:05.476Z,19.92
2022-10-01T05:37:08.160Z,20.67
2022-10-01T05:42:10.917Z,21.17
2022-10-01T05:47:14.848Z,22.67
2022-10-01T05:52:17.527Z,20.23
2022-10-01T05:57:20.044Z,28.70
2022-10-01T06:02:22.742Z,29.05
2022-10-01T06:07:25.306Z,28.20
2022-10-01T06:12:28.532Z,26.38
2022-10-01T06:17:31.228Z,26.48
2022-10-01T06:22:34.088Z,24.75
2022-10-01T06:27:36.847Z,24.58
2022-10-01T06:32:39.533Z,21.77
2022-10-01T06:37:42.243Z,20.70
2022-10-01T06:42:55.990Z,21.27
2022-10-01T06:48:03.837Z,19.10
2022-10-01T06:53:06.510Z,20.23
2022-10-01T06:58:21.259Z,18.60
2022-10-01T07:03:24.442Z,17.52
2022-10-01T07:08:27.109Z,23.30
2022-10-01T07:13:30.758Z,21.73
2022-10-01T07:18:33.428Z,22.42
2022-10-01T07:23:36.013Z,24.77
2022-10-01T07:28:38.733Z,28.13
2022-10-01T07:33:41.700Z,45.20
2022-10-01T07:38:45.972Z,52.90
2022-10-01T07:43:49.923Z,47.40
2022-10-01T07:48:52.754Z,35.58
2022-10-01T07:53:55.549Z,34.53
2022-10-01T07:58:59.180Z,30.05
2022-10-01T08:04:01.904Z,27.88
2022-10-01T08:09:06.406Z,26.90
2022-10-01T08:14:09.099Z,27.35
2022-10-01T08:19:15.473Z,26.15
2022-10-01T08:24:18.079Z,25.50
2022-10-01T08:29:20.715Z,24.75
2022-10-01T08:34:23.629Z,23.10
2022-10-01T08:39:26.196Z,23.05
2022-10-01T08:44:32.865Z,22.20
2022-10-01T08:49:47.587Z,22.08
2022-10-01T08:54:59.174Z,23.08
2022-10-01T09:05:24.842Z,22.02
2022-10-01T09:11:06.579Z,21.30
2022-10-01T09:21:37.030Z,22.23
2022-10-01T09:26:48.889Z,22.48
2022-10-01T09:31:53.950Z,24.95
2022-10-01T09:37:14.899Z,25.48
2022-10-01T09:42:18.509Z,25.00
2022-10-01T09:47:25.830Z,25.25
2022-10-01T09:52:34.651Z,23.17
2022-10-01T09:57:50.640Z,22.65
2022-10-01T10:02:56.332Z,24.35
2022-10-01T10:08:15.206Z,23.45
2022-10-01T10:13:39.168Z,24.60
2022-10-01T10:18:42.724Z,26.20
2022-10-01T10:23:52.868Z,24.40
2022-10-01T10:28:59.002Z,24.13
2022-10-01T10:34:08.425Z,23.48
2022-10-01T10:39:30.800Z,24.75
2022-10-01T10:44:42.421Z,26.85
2022-10-01T10:49:54.684Z,26.23
2022-10-01T10:54:59.487Z,28.95
2022-10-01T11:00:04.957Z,30.90
2022-10-01T11:05:20.619Z,31.90
2022-10-01T11:10:45.558Z,30.92
2022-10-01T11:15:56.035Z,31.08
2022-10-01T11:21:05.220Z,30.98
2022-10-01T11:26:14.165Z,29.55
2022-10-01T11:32:02.988Z,28.60
2022-10-01T11:37:49.166Z,24.92
2022-10-01T11:43:00.112Z,25.85
2022-10-01T11:48:15.879Z,25.42
2022-10-01T11:53:25.220Z,21.90
2022-10-01T11:58:51.426Z,19.15
2022-10-01T12:03:54.917Z,17.35
2022-10-01T12:09:05.491Z,16.30
2022-10-01T12:14:16.937Z,16.25
2022-10-01T12:19:31.896Z,14.35
2022-10-01T12:24:40.373Z,14.30
2022-10-01T12:29:52.730Z,14.27
2022-10-01T12:35:11.544Z,14.30
2022-10-01T12:40:16.916Z,14.38
2022-10-01T12:45:22.198Z,12.52
2022-10-01T12:50:53.062Z,12.13
2022-10-01T12:56:12.520Z,11.93
2022-10-01T13:01:20.864Z,10.70
2022-10-01T13:06:41.843Z,9.90
2022-10-01T13:12:15.517Z,10.27
2022-10-01T13:17:34.900Z,10.00
2022-10-01T13:22:47.006Z,10.93
2022-10-01T13:28:02.250Z,10.70
2022-10-01T13:33:22.893Z,10.25
2022-10-01T13:38:47.746Z,10.50
2022-10-01T13:43:58.267Z,11.00
2022-10-01T13:49:07.634Z,10.50
2022-10-01T13:54:22.534Z,9.98
2022-10-01T13:59:34.382Z,10.73
2022-10-01T14:04:43.390Z,11.32
2022-10-01T14:09:50.494Z,10.45
2022-10-01T14:15:15.673Z,10.40
2022-10-01T14:20:22.316Z,11.93
2022-10-01T14:25:44.536Z,10.40
2022-10-01T14:31:06.021Z,10.35
2022-10-01T14:36:28.553Z,11.13
2022-10-01T14:41:35.101Z,10.60
2022-10-01T14:46:38.178Z,10.93
2022-10-01T14:51:51.599Z,11.35
2022-10-01T14:56:55.184Z,10.05
2022-10-01T15:02:00.448Z,10.70
2022-10-01T15:07:04.960Z,10.70
2022-10-01T15:12:08.831Z,11.10
2022-10-01T15:17:22.298Z,10.85
2022-10-01T15:22:29.813Z,11.48
2022-10-01T15:27:33.576Z,13.55
2022-10-01T15:32:36.341Z,16.05
2022-10-01T15:37:41.130Z,14.00
2022-10-01T15:43:14.781Z,14.10
2022-10-01T15:48:29.149Z,15.30
2022-10-01T15:53:34.049Z,17.55
2022-10-01T15:58:43.787Z,17.30
2022-10-01T16:04:05.499Z,18.60
2022-10-01T16:09:30.905Z,18.58
2022-10-01T16:14:36.914Z,19.50
2022-10-01T16:19:39.520Z,22.92
2022-10-01T16:24:45.684Z,20.90
2022-10-01T16:29:59.117Z,22.27
2022-10-01T16:35:15.455Z,21.83
2022-10-01T16:40:19.082Z,22.02
2022-10-01T16:45:27.959Z,20.92
2022-10-01T16:50:30.633Z,21.73
2022-10-01T16:55:36.640Z,20.60
2022-10-01T17:00:39.854Z,22.65
2022-10-01T17:05:43.679Z,24.90
2022-10-01T17:10:57.124Z,26.73
2022-10-01T17:16:01.003Z,29.60
2022-10-01T17:21:04.584Z,26.13
2022-10-01T17:26:08.654Z,21.55
2022-10-01T17:31:15.568Z,17.10
2022-10-01T17:36:20.351Z,16.65
2022-10-01T17:41:23.045Z,18.02
2022-10-01T17:46:25.621Z,19.92
2022-10-01T17:51:28.396Z,22.45
2022-10-01T17:56:32.896Z,27.67
2022-10-01T18:01:36.014Z,21.85
2022-10-01T18:06:39.974Z,17.52
2022-10-01T18:11:42.604Z,15.90
2022-10-01T18:16:45.283Z,15.10
2022-10-01T18:21:48.723Z,13.73
2022-10-01T18:26:51.706Z,14.32
2022-10-01T18:32:17.872Z,15.32
2022-10-01T18:37:45.828Z,14.15
2022-10-01T18:42:57.894Z,15.02
2022-10-01T18:48:18.628Z,15.05
2022-10-01T18:53:30.508Z,13.80
2022-10-01T19:04:13.419Z,8.68
2022-10-01T19:09:28.030Z,7.97
2022-10-01T19:14:52.180Z,8.73
2022-10-01T19:20:04.689Z,8.48
2022-10-01T19:25:28.343Z,8.32
2022-10-01T19:30:41.499Z,8.95
2022-10-01T19:35:57.643Z,9.80
2022-10-01T19:41:08.381Z,10.55
2022-10-01T19:46:29.587Z,11.70
2022-10-01T19:51:45.595Z,11.60
2022-10-01T19:56:53.369Z,12.63
2022-10-01T20:02:10.530Z,11.27
2022-10-01T20:07:27.403Z,12.38
2022-10-01T20:13:13.963Z,11.45
2022-10-01T20:18:46.139Z,11.05
2022-10-01T20:23:55.980Z,10.25
2022-10-01T20:29:13.545Z,10.18
2022-10-01T20:34:27.614Z,9.45
2022-10-01T20:39:48.396Z,9.75
2022-10-01T20:44:53.143Z,8.98
2022-10-01T20:50:09.584Z,9.88
2022-10-01T20:55:18.301Z,9.55
2022-10-01T21:00:23.641Z,8.45
2022-10-01T21:05:36.618Z,8.80
2022-10-01T21:10:51.122Z,9.55
2022-10-01T21:16:24.672Z,9.65
2022-10-01T21:21:57.206Z,9.85
2022-10-01T21:27:26.600Z,10.25
2022-10-01T21:32:47.753Z,10.25
2022-10-01T21:38:28.169Z,10.07
2022-10-01T21:44:03.120Z,10.70
2022-10-01T21:49:24.463Z,8.48
2022-10-01T21:54:45.286Z,8.25
2022-10-01T22:00:08.770Z,7.37
2022-10-01T22:05:42.037Z,7.75
2022-10-01T22:10:48.448Z,6.68
2022-10-01T22:15:56.653Z,6.55
2022-10-01T22:21:01.552Z,7.28
2022-10-01T22:26:13.283Z,7.15
2022-10-01T22:36:36.032Z,5.50
2022-10-01T22:41:45.259Z,5.47
2022-10-01T22:47:06.900Z,5.15
2022-10-01T22:52:23.772Z,5.28
2022-10-01T22:57:48.269Z,5.00
2022-10-01T23:03:12.211Z,4.43
2022-10-01T23:08:43.502Z,4.18
2022-10-01T23:14:07.043Z,4.13
2022-10-01T23:19:35.148Z,4.22
2022-10-01T23:25:19.038Z,4.28
2022-10-01T23:30:21.986Z,4.50
2022-10-01T23:35:48.767Z,3.75
2022-10-01T23:40:55.753Z,3.88
2022-10-01T23:46:10.712Z,3.75
2022-10-01T23:51:21.611Z,3.97
2022-10-01T23:56:50.916Z,3.80
